Time;durP1;ratioP1;P1;durP2;ratioP2;P2;SDS_P1;SDS_P2;PMS_P1;PMS_P2;Temp;Humidity;BMP_temperature;BMP_pressure;BME280_temperature;BME280_humidity;BME280_pressure;Samples;Min_cycle;Max_cycle;Signal;HPM_P1;HPM_P2
2022/10/21 00:01:10;;;;;;;20.20;17.80;;;13.50;99.90;;;;;;4973539;28;20231;-72
2022/10/21 00:03:36;;;;;;;21.37;17.40;;;13.50;99.90;;;;;;4971718;28;20230;-72
2022/10/21 00:06:03;;;;;;;18.93;16.00;;;13.50;99.90;;;;;;4971403;28;20199;-73
2022/10/21 00:08:28;;;;;;;17.50;15.80;;;13.50;99.90;;;;;;4971249;28;20467;-72
2022/10/21 00:10:57;;;;;;;20.53;17.33;;;13.50;99.90;;;;;;4973764;28;20519;-72
2022/10/21 00:13:24;;;;;;;25.93;17.37;;;13.40;99.90;;;;;;4972238;28;20610;-72
2022/10/21 00:16:02;;;;;;;24.27;16.50;;;13.30;99.90;;;;;;4972085;28;20443;-72
2022/10/21 00:18:29;;;;;;;20.77;17.50;;;13.30;99.90;;;;;;4969913;28;20541;-73
2022/10/21 00:20:54;;;;;;;20.20;17.33;;;13.40;99.90;;;;;;4974493;28;20443;-72
2022/10/21 00:23:20;;;;;;;19.00;16.20;;;13.20;99.90;;;;;;4972871;28;20478;-72
2022/10/21 00:25:46;;;;;;;22.40;17.83;;;13.20;99.90;;;;;;4971218;28;20188;-71
2022/10/21 00:28:11;;;;;;;30.33;18.47;;;13.30;99.90;;;;;;4970953;28;20223;-73
2022/10/21 00:30:42;;;;;;;19.13;14.87;;;13.20;99.90;;;;;;4974812;28;20212;-72
2022/10/21 00:33:08;;;;;;;24.00;17.87;;;13.30;99.90;;;;;;4972724;28;20195;-73
2022/10/21 00:35:33;;;;;;;22.53;17.50;;;13.30;99.90;;;;;;4972571;28;20438;-72
2022/10/21 00:37:59;;;;;;;23.27;17.33;;;13.40;99.90;;;;;;4971133;28;20184;-73
2022/10/21 00:40:24;;;;;;;18.53;16.10;;;13.40;99.90;;;;;;4971579;28;20180;-72
2022/10/21 00:42:50;;;;;;;24.03;17.17;;;13.40;99.90;;;;;;4971556;28;20215;-73
2022/10/21 00:45:25;;;;;;;18.50;14.77;;;13.40;99.90;;;;;;4974276;28;20183;-72
2022/10/21 00:47:59;;;;;;;16.33;14.70;;;13.40;99.90;;;;;;4971859;28;20211;-72
2022/10/21 00:50:31;;;;;;;16.80;13.57;;;13.30;99.90;;;;;;4964984;28;20442;-72
2022/10/21 00:52:58;;;;;;;19.43;17.13;;;13.20;99.90;;;;;;4970679;28;20946;-72
2022/10/21 00:55:27;;;;;;;17.77;14.53;;;13.10;99.90;;;;;;4972682;28;20471;-72
2022/10/21 00:57:54;;;;;;;17.57;15.67;;;13.10;99.90;;;;;;4971103;28;20475;-72
2022/10/21 01:00:20;;;;;;;19.57;15.40;;;13.10;99.90;;;;;;4970333;28;20526;-72
2022/10/21 01:02:45;;;;;;;18.00;15.70;;;13.10;99.90;;;;;;4971429;28;20538;-72
2022/10/21 01:05:12;;;;;;;23.33;16.60;;;13.20;99.90;;;;;;4970913;28;20188;-72
2022/10/21 01:07:37;;;;;;;19.00;14.77;;;13.20;99.90;;;;;;4974298;28;20201;-72
2022/10/21 01:10:04;;;;;;;16.73;14.60;;;13.20;99.90;;;;;;4970699;28;20813;-72
2022/10/21 01:12:30;;;;;;;19.27;15.47;;;13.20;99.90;;;;;;4969472;28;20632;-73
2022/10/21 01:15:02;;;;;;;21.23;15.70;;;13.10;99.90;;;;;;4970842;28;20439;-72
2022/10/21 01:17:39;;;;;;;18.40;15.83;;;13.10;99.90;;;;;;4971822;28;20211;-72
2022/10/21 01:20:34;;;;;;;23.10;15.70;;;13.10;99.90;;;;;;4971391;28;20447;-72
2022/10/21 01:23:23;;;;;;;16.80;15.00;;;13.10;99.90;;;;;;4970068;28;20489;-72
2022/10/21 01:26:22;;;;;;;16.23;14.50;;;13.10;99.90;;;;;;4980627;28;20434;-72
2022/10/21 01:29:03;;;;;;;19.00;14.50;;;13.10;99.90;;;;;;4968713;28;20956;-72
2022/10/21 01:31:58;;;;;;;20.93;16.17;;;13.10;99.90;;;;;;4971663;28;20522;-72
2022/10/21 01:34:50;;;;;;;20.60;16.37;;;13.10;99.90;;;;;;4968193;28;20830;-72
2022/10/21 01:37:24;;;;;;;20.43;14.13;;;13.20;99.90;;;;;;4964117;28;21004;-72
2022/10/21 01:40:04;;;;;;;17.80;14.53;;;13.20;99.90;;;;;;4971155;28;20439;-71
2022/10/21 01:42:43;;;;;;;19.57;13.73;;;13.30;99.90;;;;;;4969776;28;21012;-72
2022/10/21 01:45:13;;;;;;;19.33;16.33;;;13.30;99.90;;;;;;4970722;28;20442;-72
2022/10/21 01:47:44;;;;;;;15.90;14.23;;;13.20;99.90;;;;;;4971409;28;20521;-72
2022/10/21 01:50:22;;;;;;;17.10;15.50;;;13.20;99.90;;;;;;4970335;28;20478;-72
2022/10/21 01:52:53;;;;;;;18.67;14.07;;;13.30;99.90;;;;;;4972948;28;20463;-72
2022/10/21 01:55:22;;;;;;;20.60;14.10;;;13.20;99.90;;;;;;4970276;28;20440;-72
2022/10/21 01:57:55;;;;;;;18.43;13.70;;;13.20;99.90;;;;;;4973473;28;20957;-72
2022/10/21 02:00:21;;;;;;;16.90;15.13;;;13.30;99.90;;;;;;4981934;28;20455;-72
2022/10/21 02:02:48;;;;;;;19.47;15.13;;;13.30;99.90;;;;;;4978274;28;20461;-72
2022/10/21 02:05:19;;;;;;;16.30;14.03;;;13.30;99.90;;;;;;4986335;28;20850;-72
2022/10/21 02:07:44;;;;;;;15.83;13.50;;;13.40;99.90;;;;;;4981402;28;20474;-73
2022/10/21 02:10:10;;;;;;;19.53;15.50;;;13.40;99.90;;;;;;4982538;28;20770;-72
2022/10/21 02:12:38;;;;;;;17.43;15.50;;;13.50;99.90;;;;;;4979052;28;20231;-72
2022/10/21 02:15:07;;;;;;;18.80;15.87;;;13.50;99.90;;;;;;4974807;28;20666;-72
2022/10/21 02:17:35;;;;;;;20.33;15.90;;;13.60;99.90;;;;;;4982925;28;20823;-72
2022/10/21 02:20:05;;;;;;;18.47;14.87;;;13.60;99.90;;;;;;4982183;28;20444;-72
2022/10/21 02:22:31;;;;;;;20.93;16.00;;;13.70;99.90;;;;;;4976668;28;21346;-71
2022/10/21 02:25:17;;;;;;;19.60;17.20;;;13.60;99.90;;;;;;4971748;28;20432;-72
2022/10/21 02:27:43;;;;;;;15.97;14.37;;;13.70;99.90;;;;;;4989338;28;20557;-72
2022/10/21 02:30:09;;;;;;;19.70;16.40;;;13.70;99.90;;;;;;4973180;28;20448;-72
2022/10/21 02:32:59;;;;;;;20.97;15.00;;;13.70;99.90;;;;;;4973000;28;20469;-71
2022/10/21 02:35:45;;;;;;;19.53;16.17;;;13.70;99.90;;;;;;4969263;28;20806;-72
2022/10/21 02:38:25;;;;;;;17.90;14.00;;;13.70;99.90;;;;;;4969932;28;20438;-71
2022/10/21 02:41:04;;;;;;;16.97;15.27;;;13.70;99.90;;;;;;4982201;28;20434;-72
2022/10/21 02:43:34;;;;;;;17.27;15.13;;;13.50;99.90;;;;;;4982832;28;20475;-72
2022/10/21 02:46:06;;;;;;;18.43;15.73;;;13.40;99.90;;;;;;4983646;28;20446;-72
2022/10/21 02:48:32;;;;;;;17.97;15.90;;;13.40;99.90;;;;;;4980175;28;20942;-72
2022/10/21 02:50:59;;;;;;;24.77;18.73;;;13.80;99.90;;;;;;4982271;28;20443;-72
2022/10/21 02:53:24;;;;;;;18.33;16.13;;;13.50;99.90;;;;;;4978413;28;20550;-72
2022/10/21 02:55:50;;;;;;;21.77;15.67;;;13.60;99.90;;;;;;4982172;28;20522;-72
2022/10/21 02:58:15;;;;;;;21.67;17.07;;;13.60;99.90;;;;;;4985651;28;20230;-71
2022/10/21 03:00:41;;;;;;;23.87;18.50;;;13.70;99.90;;;;;;4976447;28;20346;-72
2022/10/21 03:03:06;;;;;;;22.33;18.23;;;13.70;99.90;;;;;;4984456;28;20721;-72
2022/10/21 03:05:32;;;;;;;19.70;17.77;;;13.70;99.90;;;;;;4981011;28;20231;-72
2022/10/21 03:07:57;;;;;;;32.17;19.97;;;13.70;99.90;;;;;;4984087;28;20196;-72
2022/10/21 03:10:23;;;;;;;21.50;17.97;;;13.70;99.90;;;;;;4985534;28;20179;-71
2022/10/21 03:12:49;;;;;;;22.53;19.07;;;13.70;99.90;;;;;;4983024;28;20302;-71
2022/10/21 03:15:15;;;;;;;24.70;18.23;;;13.60;99.90;;;;;;4981341;28;20648;-71
2022/10/21 03:17:40;;;;;;;26.00;19.90;;;13.70;99.90;;;;;;4970171;28;20274;-72
2022/10/21 03:20:06;;;;;;;23.13;17.80;;;13.70;99.90;;;;;;4972209;28;20436;-71
2022/10/21 03:22:32;;;;;;;24.97;19.43;;;13.70;99.90;;;;;;4972624;28;20208;-71
2022/10/21 03:24:58;;;;;;;25.33;18.70;;;13.60;99.90;;;;;;4973100;28;20180;-71
2022/10/21 03:27:24;;;;;;;22.83;18.10;;;13.60;99.90;;;;;;4972387;28;20447;-71
2022/10/21 03:29:49;;;;;;;21.83;17.97;;;13.60;99.90;;;;;;4973005;28;20180;-71
2022/10/21 03:32:15;;;;;;;26.43;20.13;;;13.60;99.90;;;;;;4971861;28;20562;-72
2022/10/21 03:34:40;;;;;;;21.80;19.23;;;13.60;99.90;;;;;;4972447;28;20184;-71
2022/10/21 03:37:06;;;;;;;22.20;18.60;;;13.60;99.90;;;;;;4971770;28;20194;-72
2022/10/21 03:39:31;;;;;;;24.30;20.43;;;13.60;99.90;;;;;;4971979;28;20267;-72
2022/10/21 03:41:57;;;;;;;25.13;19.43;;;13.60;99.90;;;;;;4971941;28;20658;-71
2022/10/21 03:44:22;;;;;;;26.77;19.67;;;13.60;99.90;;;;;;4971775;28;20228;-71
2022/10/21 03:46:48;;;;;;;22.87;20.43;;;13.60;99.90;;;;;;4972757;28;20196;-71
2022/10/21 03:49:13;;;;;;;25.33;19.47;;;13.60;99.90;;;;;;4971118;28;20212;-71
2022/10/21 03:51:39;;;;;;;22.13;19.70;;;13.60;99.90;;;;;;4972870;28;20184;-72
2022/10/21 03:54:04;;;;;;;23.57;19.03;;;13.60;99.90;;;;;;4971811;28;20942;-72
2022/10/21 03:56:31;;;;;;;23.37;20.53;;;13.60;99.90;;;;;;4972188;28;20243;-72
2022/10/21 03:58:57;;;;;;;25.20;19.00;;;13.60;99.90;;;;;;4970079;28;20270;-72
2022/10/21 04:01:22;;;;;;;26.60;19.20;;;13.60;99.90;;;;;;4972685;28;20531;-71
2022/10/21 04:03:48;;;;;;;22.77;18.50;;;13.70;99.90;;;;;;4971037;28;20219;-70
2022/10/21 04:06:14;;;;;;;22.00;19.70;;;13.60;99.90;;;;;;4972736;28;20184;-70
2022/10/21 04:08:39;;;;;;;25.40;17.47;;;13.70;99.90;;;;;;4971346;28;20203;-70
2022/10/21 04:11:05;;;;;;;20.27;17.87;;;13.80;99.90;;;;;;4970675;28;20219;-70
2022/10/21 04:13:31;;;;;;;24.77;18.23;;;13.80;99.90;;;;;;4970688;28;20258;-70
2022/10/21 04:15:58;;;;;;;22.47;19.07;;;13.80;99.90;;;;;;4972575;28;20283;-70
2022/10/21 04:18:23;;;;;;;21.63;17.40;;;13.80;99.90;;;;;;4970834;28;20453;-70
2022/10/21 04:20:49;;;;;;;22.33;16.70;;;13.80;99.90;;;;;;4971906;28;20534;-70
2022/10/21 04:23:14;;;;;;;20.47;14.83;;;13.90;99.90;;;;;;4970114;28;20216;-71
2022/10/21 04:25:43;;;;;;;18.70;16.80;;;13.80;99.90;;;;;;4971317;28;20184;-70
2022/10/21 04:28:08;;;;;;;21.83;17.70;;;13.90;99.90;;;;;;4973015;28;20753;-71
2022/10/21 04:30:34;;;;;;;18.53;15.97;;;13.80;99.90;;;;;;4967689;28;20444;-70
2022/10/21 04:32:59;;;;;;;21.53;16.30;;;13.80;99.90;;;;;;4971036;28;20274;-72
2022/10/21 04:35:25;;;;;;;18.80;15.20;;;13.90;99.90;;;;;;4976978;28;20187;-71
2022/10/21 04:37:50;;;;;;;25.10;17.30;;;13.80;99.90;;;;;;4978935;28;20257;-70
2022/10/21 04:40:16;;;;;;;19.00;16.87;;;13.90;99.90;;;;;;4974964;28;20211;-72
2022/10/21 04:42:46;;;;;;;20.30;14.50;;;13.90;99.90;;;;;;4984895;28;20665;-71
2022/10/21 04:45:12;;;;;;;15.63;12.97;;;13.90;99.90;;;;;;4984653;28;20657;-72
2022/10/21 04:47:37;;;;;;;18.33;13.97;;;13.90;99.90;;;;;;4970342;28;20448;-72
2022/10/21 04:50:03;;;;;;;14.40;12.90;;;13.90;99.90;;;;;;4970864;28;20183;-70
2022/10/21 04:52:28;;;;;;;13.93;12.30;;;14.00;99.90;;;;;;4970273;28;20254;-72
2022/10/21 04:54:54;;;;;;;12.90;10.90;;;14.10;99.90;;;;;;4971072;28;20211;-70
2022/10/21 04:57:20;;;;;;;16.40;12.20;;;14.00;99.90;;;;;;4971215;28;20203;-72
2022/10/21 04:59:45;;;;;;;11.20;9.83;;;14.10;99.90;;;;;;4971136;28;20646;-71
2022/10/21 05:02:11;;;;;;;10.90;7.83;;;14.20;99.90;;;;;;4970330;28;20212;-73
2022/10/21 05:04:36;;;;;;;11.30;7.40;;;14.30;99.90;;;;;;4971868;28;20231;-70
2022/10/21 05:07:02;;;;;;;16.27;8.37;;;14.50;99.90;;;;;;4967824;28;20192;-70
2022/10/21 05:09:27;;;;;;;11.03;6.43;;;14.60;99.90;;;;;;4970580;28;20292;-70
2022/10/21 05:11:53;;;;;;;10.13;6.63;;;14.60;99.90;;;;;;4969972;28;22029;-70
2022/10/21 05:14:18;;;;;;;9.30;6.97;;;14.60;99.90;;;;;;4971575;28;20243;-73
2022/10/21 05:16:44;;;;;;;9.30;6.20;;;14.70;99.90;;;;;;4971097;28;20173;-72
2022/10/21 05:19:10;;;;;;;13.13;7.27;;;14.60;99.90;;;;;;4966552;28;20195;-72
2022/10/21 05:21:36;;;;;;;12.90;8.40;;;14.70;99.90;;;;;;4971504;28;20221;-72
2022/10/21 05:24:02;;;;;;;9.23;7.00;;;14.70;99.90;;;;;;4970611;28;20490;-71
2022/10/21 05:26:29;;;;;;;12.03;7.00;;;14.70;99.90;;;;;;4969337;28;20176;-71
2022/10/21 05:28:56;;;;;;;8.80;6.83;;;14.70;99.90;;;;;;4969229;28;20192;-71
2022/10/21 05:31:21;;;;;;;10.30;5.80;;;14.70;99.90;;;;;;4971329;28;20443;-71
2022/10/21 05:33:47;;;;;;;8.77;5.80;;;14.60;99.90;;;;;;4971427;28;20816;-71
2022/10/21 05:36:12;;;;;;;8.40;6.10;;;14.70;99.90;;;;;;4971508;28;20183;-71
2022/10/21 05:38:38;;;;;;;17.67;8.40;;;14.70;99.90;;;;;;4974380;28;20187;-71
2022/10/21 05:41:03;;;;;;;13.10;6.70;;;14.80;99.90;;;;;;4972711;28;20191;-71
2022/10/21 05:43:29;;;;;;;9.60;6.77;;;14.70;99.90;;;;;;4970806;28;20204;-71
2022/10/21 05:45:55;;;;;;;11.23;6.30;;;14.80;99.90;;;;;;4974256;28;20187;-71
2022/10/21 05:48:20;;;;;;;14.00;6.20;;;14.70;99.90;;;;;;4975061;28;20204;-71
2022/10/21 05:50:47;;;;;;;14.67;7.40;;;14.80;99.90;;;;;;4973838;28;20181;-71
2022/10/21 05:53:13;;;;;;;12.17;6.87;;;14.70;99.90;;;;;;4974974;28;20662;-71
2022/10/21 05:55:38;;;;;;;9.70;7.47;;;14.70;99.90;;;;;;4975735;28;20434;-71
2022/10/21 05:58:04;;;;;;;14.63;9.50;;;14.70;99.90;;;;;;4991375;28;20443;-71
2022/10/21 06:00:30;;;;;;;11.87;7.43;;;14.70;99.90;;;;;;4976226;28;20200;-71
2022/10/21 06:02:55;;;;;;;9.67;6.80;;;14.70;99.90;;;;;;4986138;28;20494;-71
2022/10/21 06:05:21;;;;;;;14.40;7.87;;;14.70;99.90;;;;;;4986306;28;20214;-71
2022/10/21 06:07:47;;;;;;;10.67;8.20;;;14.70;99.90;;;;;;4986585;28;20227;-71
2022/10/21 06:10:15;;;;;;;9.13;6.77;;;14.70;99.90;;;;;;4978680;28;20180;-71
2022/10/21 06:12:41;;;;;;;12.37;6.97;;;14.70;99.90;;;;;;4981612;28;20470;-71
2022/10/21 06:15:07;;;;;;;11.97;6.73;;;14.70;99.90;;;;;;4969102;28;20444;-70
2022/10/21 06:17:32;;;;;;;11.00;7.30;;;14.70;99.90;;;;;;4985267;28;20180;-71
2022/10/21 06:19:58;;;;;;;13.53;6.73;;;14.70;99.90;;;;;;4980749;28;20526;-71
2022/10/21 06:22:23;;;;;;;14.10;8.53;;;14.70;99.90;;;;;;4979333;28;20208;-71
2022/10/21 06:24:49;;;;;;;10.23;6.90;;;14.60;99.90;;;;;;4981312;28;20173;-71
2022/10/21 06:27:15;;;;;;;14.57;7.80;;;14.60;99.90;;;;;;4982168;28;20184;-71
2022/10/21 06:29:40;;;;;;;21.03;8.20;;;14.70;99.90;;;;;;4975390;28;20444;-71
2022/10/21 06:32:06;;;;;;;16.23;9.10;;;14.70;99.90;;;;;;4974580;28;20180;-71
2022/10/21 06:34:31;;;;;;;14.93;8.60;;;14.60;99.90;;;;;;4974053;28;20196;-71
2022/10/21 06:36:57;;;;;;;13.90;8.53;;;14.60;99.90;;;;;;4972940;28;20189;-71
2022/10/21 06:39:22;;;;;;;12.67;8.97;;;14.60;99.90;;;;;;4971838;28;20530;-71
2022/10/21 06:41:48;;;;;;;13.30;8.53;;;14.60;99.90;;;;;;4972632;28;20192;-70
2022/10/21 06:44:13;;;;;;;14.07;8.17;;;14.60;99.90;;;;;;4974659;28;20230;-70
2022/10/21 06:46:39;;;;;;;14.20;9.67;;;14.50;99.90;;;;;;4974830;28;20176;-70
2022/10/21 06:49:04;;;;;;;14.97;9.40;;;14.60;99.90;;;;;;4975633;28;20230;-71
2022/10/21 06:51:30;;;;;;;15.63;8.63;;;14.60;99.90;;;;;;4978197;28;20211;-71
2022/10/21 06:53:58;;;;;;;15.30;8.90;;;14.60;99.90;;;;;;4974989;28;20247;-71
2022/10/21 06:56:24;;;;;;;17.07;10.27;;;14.60;99.90;;;;;;4974422;28;20211;-73
2022/10/21 06:58:50;;;;;;;11.83;8.47;;;14.60;99.90;;;;;;4975264;28;20442;-72
2022/10/21 07:01:20;;;;;;;14.57;10.43;;;14.60;99.90;;;;;;4973231;28;20432;-73
2022/10/21 07:03:45;;;;;;;15.63;8.10;;;14.60;99.90;;;;;;4975154;28;20200;-74
2022/10/21 07:06:11;;;;;;;37.43;14.00;;;14.70;99.90;;;;;;4975349;28;20790;-74
2022/10/21 07:08:38;;;;;;;12.67;9.57;;;14.60;99.90;;;;;;4974922;28;20932;-73
2022/10/21 07:11:05;;;;;;;14.97;9.47;;;14.60;99.90;;;;;;4971649;28;20238;-71
2022/10/21 07:13:33;;;;;;;11.93;8.27;;;14.60;99.90;;;;;;4973052;28;20633;-70
2022/10/21 07:16:06;;;;;;;13.80;8.87;;;14.70;99.90;;;;;;4970444;28;20455;-70
2022/10/21 07:18:32;;;;;;;17.23;10.90;;;14.70;99.90;;;;;;4973032;28;20920;-71
2022/10/21 07:21:06;;;;;;;19.30;11.60;;;14.70;99.90;;;;;;4972402;28;20462;-70
2022/10/21 07:23:32;;;;;;;19.20;9.20;;;14.60;99.90;;;;;;4972936;28;20466;-70
2022/10/21 07:26:01;;;;;;;11.33;9.17;;;14.70;99.90;;;;;;4971197;28;20454;-70
2022/10/21 07:28:26;;;;;;;18.37;9.50;;;14.70;99.90;;;;;;4974043;28;20252;-70
2022/10/21 07:30:52;;;;;;;16.80;10.87;;;14.70;99.90;;;;;;4973946;28;20938;-70
2022/10/21 07:33:17;;;;;;;15.93;9.10;;;14.70;99.90;;;;;;4975375;28;20200;-70
2022/10/21 07:35:43;;;;;;;16.23;9.30;;;14.70;99.90;;;;;;4973452;28;20559;-70
2022/10/21 07:38:11;;;;;;;18.10;8.93;;;14.70;99.90;;;;;;4980394;28;20191;-70
2022/10/21 07:40:41;;;;;;;14.57;9.30;;;14.70;99.90;;;;;;4987321;28;20646;-70
2022/10/21 07:43:07;;;;;;;15.03;9.13;;;14.70;99.90;;;;;;4981120;28;20470;-70
2022/10/21 07:45:33;;;;;;;16.13;9.20;;;14.80;99.90;;;;;;4973526;28;20817;-70
2022/10/21 07:47:58;;;;;;;12.60;9.17;;;14.80;99.90;;;;;;4981524;28;20478;-70
2022/10/21 07:50:24;;;;;;;12.47;9.10;;;14.80;99.90;;;;;;4973081;28;20452;-70
2022/10/21 07:52:49;;;;;;;19.07;11.40;;;14.70;99.90;;;;;;4971859;28;20223;-69
2022/10/21 07:55:16;;;;;;;16.10;10.67;;;14.70;99.90;;;;;;4978361;28;20219;-70
2022/10/21 07:57:42;;;;;;;13.50;10.03;;;14.70;99.90;;;;;;4981576;28;20183;-70
2022/10/21 08:00:10;;;;;;;15.03;9.70;;;14.70;99.90;;;;;;4975895;28;20439;-70
2022/10/21 08:02:36;;;;;;;14.87;10.70;;;14.70;99.90;;;;;;4973060;28;20459;-70
2022/10/21 08:05:02;;;;;;;13.83;9.77;;;14.80;99.90;;;;;;4973040;28;20436;-70
2022/10/21 08:07:33;;;;;;;16.33;9.83;;;14.70;99.90;;;;;;4979682;28;20434;-70
2022/10/21 08:09:59;;;;;;;13.50;10.27;;;14.80;99.90;;;;;;4973453;28;20447;-70
2022/10/21 08:12:25;;;;;;;19.57;9.80;;;14.70;99.90;;;;;;4977468;28;21020;-70
2022/10/21 08:14:50;;;;;;;15.30;10.30;;;14.80;99.90;;;;;;4972942;28;20226;-70
2022/10/21 08:17:16;;;;;;;18.30;10.37;;;14.80;99.90;;;;;;4972781;28;20216;-70
2022/10/21 08:19:42;;;;;;;18.40;9.00;;;14.80;99.90;;;;;;4970874;28;20180;-70
2022/10/21 08:22:08;;;;;;;14.70;10.00;;;14.80;99.90;;;;;;4972087;28;20180;-70
2022/10/21 08:24:34;;;;;;;21.27;10.20;;;14.80;99.90;;;;;;4972498;28;20339;-70
2022/10/21 08:26:59;;;;;;;14.67;10.17;;;14.90;99.90;;;;;;4971344;28;20212;-70
2022/10/21 08:29:25;;;;;;;12.43;9.07;;;14.90;99.90;;;;;;4970311;28;20561;-70
2022/10/21 08:31:50;;;;;;;15.23;9.20;;;14.80;99.90;;;;;;4966788;28;20673;-70
2022/10/21 08:34:16;;;;;;;19.87;10.40;;;14.90;99.90;;;;;;4975894;28;20207;-70
2022/10/21 08:36:42;;;;;;;16.67;10.80;;;15.00;99.90;;;;;;4969240;28;20223;-70
2022/10/21 08:39:07;;;;;;;12.40;8.50;;;15.00;99.90;;;;;;4971021;28;20644;-70
2022/10/21 08:42:05;;;;;;;17.77;8.63;;;14.90;99.90;;;;;;4976386;28;20184;-70
2022/10/21 08:44:45;;;;;;;14.43;8.53;;;14.90;99.90;;;;;;4966958;28;20307;-70
2022/10/21 08:47:43;;;;;;;15.23;8.70;;;14.90;99.90;;;;;;4965847;28;20802;-70
2022/10/21 08:50:14;;;;;;;12.33;8.53;;;14.90;99.90;;;;;;4975425;28;20471;-70
2022/10/21 08:52:48;;;;;;;14.20;9.27;;;15.00;99.90;;;;;;4969623;28;20455;-70
2022/10/21 08:55:31;;;;;;;13.30;8.10;;;15.10;99.90;;;;;;4973616;28;20446;-70
2022/10/21 08:57:58;;;;;;;15.57;8.67;;;15.10;99.90;;;;;;4972899;28;20443;-70
2022/10/21 09:00:49;;;;;;;12.43;8.70;;;15.00;99.90;;;;;;4972167;28;20434;-68
2022/10/21 09:03:22;;;;;;;15.00;9.60;;;15.10;99.90;;;;;;4967178;28;20467;-70
2022/10/21 09:06:08;;;;;;;14.50;8.53;;;15.10;99.90;;;;;;4964960;28;20531;-70
2022/10/21 09:08:51;;;;;;;19.87;10.93;;;15.10;99.90;;;;;;4963947;28;20459;-70
2022/10/21 09:11:31;;;;;;;14.90;8.50;;;15.10;99.90;;;;;;4965627;28;20435;-70
2022/10/21 09:14:27;;;;;;;16.47;9.67;;;15.20;99.90;;;;;;4978699;28;20522;-70
2022/10/21 09:17:17;;;;;;;12.83;9.00;;;15.20;99.90;;;;;;4976849;28;20573;-70
2022/10/21 09:19:43;;;;;;;13.90;8.17;;;15.30;99.90;;;;;;4976849;28;20423;-70
2022/10/21 09:22:32;;;;;;;11.20;8.50;;;15.30;99.90;;;;;;4978882;28;20975;-70
2022/10/21 09:25:20;;;;;;;14.80;8.40;;;15.40;99.90;;;;;;4978412;28;20595;-70
2022/10/21 09:27:46;;;;;;;14.53;7.57;;;15.40;99.90;;;;;;4975705;28;20862;-70
2022/10/21 09:30:23;;;;;;;7.97;5.80;;;15.40;99.90;;;;;;4978215;28;20944;-70
2022/10/21 09:32:53;;;;;;;11.57;5.30;;;15.40;99.90;;;;;;4977814;28;20509;-70
2022/10/21 09:35:25;;;;;;;7.60;4.70;;;15.50;99.90;;;;;;4976260;28;20806;-70
2022/10/21 09:38:09;;;;;;;10.07;4.67;;;15.50;99.90;;;;;;4983174;28;20481;-70
2022/10/21 09:40:35;;;;;;;10.50;4.47;;;15.40;99.90;;;;;;4972710;28;20434;-70
2022/10/21 09:43:01;;;;;;;5.00;4.17;;;15.40;99.90;;;;;;4977012;28;20452;-70
2022/10/21 09:45:34;;;;;;;5.63;4.00;;;15.40;99.90;;;;;;4977410;28;20681;-70
2022/10/21 09:48:08;;;;;;;7.87;4.50;;;15.40;99.90;;;;;;4977904;28;20934;-70
2022/10/21 09:50:34;;;;;;;6.67;4.23;;;15.40;99.90;;;;;;4976424;28;20445;-70
2022/10/21 09:53:30;;;;;;;7.80;3.93;;;15.30;99.90;;;;;;4978063;28;20529;-70
2022/10/21 09:56:03;;;;;;;9.37;4.70;;;15.30;99.90;;;;;;4976910;28;20812;-70
2022/10/21 09:58:47;;;;;;;7.97;4.03;;;15.40;99.90;;;;;;4977859;28;20431;-70
2022/10/21 10:01:18;;;;;;;7.60;4.17;;;15.50;99.90;;;;;;4971818;28;20457;-70
2022/10/21 10:03:49;;;;;;;6.77;4.07;;;15.50;99.90;;;;;;4982770;28;20500;-70
2022/10/21 10:06:33;;;;;;;7.77;4.63;;;15.60;99.90;;;;;;4976804;28;20449;-70
2022/10/21 10:09:26;;;;;;;7.27;3.87;;;15.50;99.90;;;;;;4979682;28;20459;-70
2022/10/21 10:12:22;;;;;;;6.47;4.93;;;15.60;99.90;;;;;;4977387;28;20506;-70
2022/10/21 10:14:48;;;;;;;6.10;4.30;;;15.60;99.90;;;;;;4976848;28;20859;-70
2022/10/21 10:17:22;;;;;;;6.43;4.40;;;15.60;99.90;;;;;;4977589;28;20431;-70
2022/10/21 10:20:03;;;;;;;4.97;4.03;;;15.60;99.90;;;;;;4974438;28;20426;-70
2022/10/21 10:22:37;;;;;;;6.37;4.77;;;15.60;99.90;;;;;;4978566;28;20449;-70
2022/10/21 10:25:17;;;;;;;5.37;3.50;;;15.60;99.90;;;;;;4974770;28;20435;-70
2022/10/21 10:27:58;;;;;;;9.77;6.90;;;15.60;99.90;;;;;;4972234;28;20443;-69
2022/10/21 10:30:28;;;;;;;9.27;5.00;;;15.70;99.90;;;;;;4970357;28;20432;-70
2022/10/21 10:32:55;;;;;;;11.80;9.67;;;15.70;99.90;;;;;;4973058;28;20517;-70
2022/10/21 10:35:33;;;;;;;11.27;5.83;;;15.80;99.90;;;;;;4972510;28;20817;-69
2022/10/21 10:38:01;;;;;;;11.70;5.77;;;15.80;99.90;;;;;;4972824;28;20447;-72
2022/10/21 10:40:41;;;;;;;9.00;5.67;;;15.90;99.90;;;;;;4969635;28;20455;-71
2022/10/21 10:43:21;;;;;;;10.93;4.93;;;16.10;99.90;;;;;;4977141;28;20505;-73
2022/10/21 10:46:00;;;;;;;10.63;5.60;;;16.00;99.90;;;;;;4980072;28;20434;-73
2022/10/21 10:48:45;;;;;;;9.97;5.83;;;16.10;99.90;;;;;;4970399;28;20823;-70
2022/10/21 10:51:27;;;;;;;7.40;5.30;;;16.10;99.90;;;;;;4983627;28;20663;-70
2022/10/21 10:54:00;;;;;;;9.30;5.10;;;16.10;99.90;;;;;;4969454;28;20502;-72
2022/10/21 10:56:30;;;;;;;8.87;4.13;;;16.10;99.90;;;;;;4970362;28;20471;-72
2022/10/21 10:59:15;;;;;;;7.13;3.80;;;16.30;99.90;;;;;;4974780;28;20451;-70
2022/10/21 11:01:52;;;;;;;7.57;4.47;;;16.30;99.90;;;;;;4980188;28;20450;-69
2022/10/21 11:04:37;;;;;;;9.37;4.10;;;16.10;99.90;;;;;;4969869;28;20459;-69
2022/10/21 11:07:32;;;;;;;6.63;4.03;;;16.40;99.90;;;;;;4973895;28;20451;-69
2022/10/21 11:10:02;;;;;;;8.20;4.40;;;16.50;99.90;;;;;;4972203;28;20498;-69
2022/10/21 11:12:27;;;;;;;6.80;3.80;;;16.40;99.90;;;;;;4976075;28;20451;-69
2022/10/21 11:14:56;;;;;;;7.10;4.37;;;16.60;99.90;;;;;;4972278;28;20443;-68
2022/10/21 11:17:29;;;;;;;5.07;3.40;;;16.70;99.90;;;;;;4972387;28;20184;-69
2022/10/21 11:20:06;;;;;;;6.97;2.70;;;16.80;99.90;;;;;;4973786;28;20435;-68
2022/10/21 11:22:56;;;;;;;3.97;3.30;;;17.10;99.90;;;;;;4970427;28;20467;-69
2022/10/21 11:25:38;;;;;;;3.83;3.47;;;17.20;99.90;;;;;;4970192;28;20447;-69
2022/10/21 11:28:16;;;;;;;5.30;3.60;;;17.30;99.90;;;;;;4972191;28;20464;-69
2022/10/21 11:31:05;;;;;;;2.77;2.57;;;17.40;99.90;;;;;;4972783;28;21016;-69
2022/10/21 11:33:43;;;;;;;2.63;2.43;;;17.50;99.90;;;;;;4955768;28;20865;-69
2022/10/21 11:36:11;;;;;;;4.00;2.90;;;17.60;99.90;;;;;;4973105;28;20430;-70
2022/10/21 11:39:25;;;;;;;6.77;3.43;;;17.70;99.90;;;;;;4976373;28;20523;-70
2022/10/21 11:42:08;;;;;;;2.57;2.30;;;17.90;99.90;;;;;;4978248;28;20526;-70
2022/10/21 11:45:29;;;;;;;3.60;2.43;;;18.20;99.90;;;;;;4972056;28;21004;-70
2022/10/21 11:48:24;;;;;;;3.83;3.50;;;18.50;99.90;;;;;;4931284;29;20975;-72
2022/10/21 11:51:12;;;;;;;5.67;4.57;;;18.80;99.90;;;;;;4973639;28;20431;-72
2022/10/21 11:54:10;;;;;;;4.10;2.67;;;18.80;99.90;;;;;;4975156;28;20491;-72
2022/10/21 11:56:51;;;;;;;3.50;2.27;;;18.70;99.90;;;;;;4969248;28;20794;-73
2022/10/21 11:59:37;;;;;;;2.23;2.00;;;18.70;99.90;;;;;;4965912;28;20437;-72
2022/10/21 12:02:35;;;;;;;3.37;1.87;;;18.30;99.90;;;;;;4973323;28;20447;-73
2022/10/21 12:05:12;;;;;;;3.10;2.00;;;18.10;99.90;;;;;;4972035;28;20590;-73
2022/10/21 12:07:44;;;;;;;4.70;2.37;;;18.00;99.90;;;;;;4971135;28;20443;-73
2022/10/21 12:10:31;;;;;;;3.03;1.80;;;17.70;99.90;;;;;;4979527;28;20874;-73
2022/10/21 12:13:06;;;;;;;3.43;2.27;;;17.70;99.90;;;;;;4972236;28;20479;-72
2022/10/21 12:15:40;;;;;;;1.83;1.60;;;17.60;99.90;;;;;;4978479;28;20822;-72
2022/10/21 12:18:12;;;;;;;4.07;2.07;;;17.50;99.90;;;;;;4972312;28;20953;-73
2022/10/21 12:20:37;;;;;;;2.77;2.03;;;17.50;99.90;;;;;;4979036;28;20440;-73
2022/10/21 12:23:05;;;;;;;2.43;1.70;;;17.50;99.90;;;;;;4972182;28;20522;-73
2022/10/21 12:25:58;;;;;;;2.63;2.10;;;17.60;99.90;;;;;;4970932;28;20199;-73
2022/10/21 12:28:41;;;;;;;3.70;1.67;;;17.60;99.90;;;;;;4967683;28;20471;-73
2022/10/21 12:31:27;;;;;;;3.83;1.90;;;17.60;99.90;;;;;;4969579;28;20474;-73
2022/10/21 12:33:54;;;;;;;3.10;1.90;;;17.50;99.90;;;;;;4970720;28;20455;-73
2022/10/21 12:36:34;;;;;;;2.00;1.80;;;17.60;99.90;;;;;;4973485;28;20468;-73
2022/10/21 12:39:00;;;;;;;3.00;2.80;;;17.60;99.90;;;;;;4971485;28;20435;-73
2022/10/21 12:41:27;;;;;;;6.97;2.57;;;17.50;99.90;;;;;;4976957;28;20501;-72
2022/10/21 12:43:57;;;;;;;5.30;1.70;;;17.40;99.90;;;;;;4973278;28;20204;-73
2022/10/21 12:46:26;;;;;;;1.90;1.30;;;17.40;99.90;;;;;;4983871;28;20489;-72
2022/10/21 12:48:52;;;;;;;3.70;2.50;;;17.20;99.90;;;;;;4971782;28;20463;-73
2022/10/21 12:51:32;;;;;;;1.53;1.37;;;17.30;99.90;;;;;;4977405;28;20482;-73
2022/10/21 12:54:07;;;;;;;4.60;1.70;;;17.20;99.90;;;;;;4972282;28;20262;-73
2022/10/21 12:56:48;;;;;;;3.33;1.80;;;17.10;99.90;;;;;;4977388;28;20529;-72